Latest Weather Observations for Bathurst Airport

IDN60801

Issued at 6:03 am EST Wednesday 22 September 2021 (issued every 10 minutes, with the page automatically refreshed every 10 minutes)

About weather observations | Map of weather stations | Latest weather observations for NSW | Other Formats
Station Details ID: 063291 Name: BATHURST AIRPORT AWS Lat: -33.41 Lon: 149.65 Height: 744.5 m
Data from the previous 72 hours. | See also: Recent months at Bathurst Airport
Date/Time
EST
Temp
°C
App
Temp
°C
Dew
Point
°C
Rel
Hum
%
Delta-T
°C
Wind Press
QNH
hPa
Press
MSL
hPa
Rain since
9am
mm
Dir  Spd
km/h
Gust
km/h
Spd
kts
Gust
kts
22/06:00am -0.1 -2.1 -0.2 99 0.0 CALM 0 6 0 3 1023.4 1023.0 0.0
22/05:30am 1.5 -1.6 1.4 99 0.0 SSW 7 9 4 5 1023.0 1022.7 0.0
22/05:00am 2.4 -0.9 2.3 99 0.0 S 9 11 5 6 1022.8 1022.5 0.0
22/04:30am 2.8 -0.5 2.7 99 0.0 SE 9 11 5 6 1022.7 1022.4 0.0
22/04:00am 2.7 -0.2 2.6 99 0.0 SSW 7 7 4 4 1022.7 1022.4 0.0
22/03:30am 2.3 -0.5 2.2 99 0.0 SSW 6 7 3 4 1022.7 1022.4 0.0
22/03:16am 2.3 -0.5 2.2 99 0.0 SSW 6 7 3 4 1022.7 1022.4 0.0
22/03:00am 2.5 0.8 2.1 97 0.2 CALM 0 4 0 2 1022.8 1022.5 0.0
22/02:30am 3.4 0.5 2.5 94 0.4 W 7 9 4 5 1023.1 1022.8 0.0
22/02:08am 4.7 2.1 3.0 89 0.7 S 6 7 3 4 1023.4 1023.0 0.0
22/02:00am 4.8 2.2 3.0 88 0.8 S 6 7 3 4 1023.5 1023.1 0.0
22/01:30am 4.7 3.2 3.0 89 0.7 CALM 0 0 0 0 1023.9 1023.6 0.0
22/01:00am 4.8 2.6 3.3 90 0.6 SW 4 7 2 4 1024.1 1023.8 0.0
22/12:30am 4.6 3.2 3.6 93 0.4 CALM 0 0 0 0 1024.4 1024.1 0.0
22/12:00am 4.5 2.0 3.5 93 0.4 SW 6 7 3 4 1024.5 1024.2 0.0
 
Date/Time
EST
Temp
°C
App
Temp
°C
Dew
Point
°C
Rel
Hum
%
Delta-T
°C
Wind Press
QNH
hPa
Press
MSL
hPa
Rain since
9am
mm
Dir  Spd
km/h
Gust
km/h
Spd
kts
Gust
kts
21/11:30pm 4.5 1.8 3.6 94 0.4 WSW 7 9 4 5 1024.8 1024.5 0.0
21/11:00pm 3.5 1.3 3.4 99 0.0 N 4 7 2 4 1025.0 1024.7 0.0
21/10:30pm 2.0 -1.0 1.9 99 0.0 N 7 9 4 5 1025.1 1024.8 0.0
21/10:00pm 2.7 1.1 2.6 99 0.0 CALM 0 0 0 0 1025.1 1024.8 0.0
21/09:30pm 3.1 1.6 3.0 99 0.0 CALM 0 0 0 0 1024.8 1024.5 0.0
21/09:00pm 3.0 1.4 2.7 98 0.1 CALM 0 0 0 0 1024.3 1024.0 0.0
21/08:30pm 2.9 0.9 2.5 97 0.2 W 2 6 1 3 1023.8 1023.5 0.0
21/08:00pm 4.4 1.6 3.1 91 0.6 SW 7 11 4 6 1023.6 1023.3 0.0
21/07:30pm 3.9 2.5 3.5 97 0.2 CALM 0 0 0 0 1023.3 1022.9 0.0
21/07:00pm 4.1 2.6 3.2 94 0.4 CALM 0 6 0 3 1022.8 1022.5 0.0
21/06:30pm 4.4 1.6 3.2 92 0.5 E 7 9 4 5 1022.3 1021.9 0.0
21/06:00pm 5.3 3.4 3.0 85 1.0 SSE 2 6 1 3 1022.0 1021.6 0.0
21/05:30pm 6.3 2.8 3.3 81 1.3 SSW 11 15 6 8 1021.6 1021.3 0.0
21/05:00pm 6.8 2.2 3.6 80 1.4 SW 17 24 9 13 1021.4 1021.1 0.0
21/04:30pm 6.5 0.5 3.3 80 1.4 SW 24 32 13 17 1021.3 1021.0 0.0
21/04:00pm 6.7 -0.9 2.6 75 1.8 SW 32 37 17 20 1021.2 1020.8 0.0
21/03:30pm 8.5 2.7 2.5 66 2.6 S 22 28 12 15 1020.4 1020.0 0.0
21/03:00pm 8.9 3.5 2.3 63 2.9 S 20 26 11 14 1019.8 1019.4 0.0
21/02:30pm 7.1 0.8 1.8 69 2.3 S 24 35 13 19 1019.7 1019.3 0.0
21/02:00pm 8.4 1.5 2.6 67 2.5 S 28 37 15 20 1019.5 1019.1 0.0
21/01:30pm 7.9 0.6 0.2 58 3.2 SSW 28 37 15 20 1019.3 1018.9 0.0
21/01:00pm 8.8 2.0 1.0 58 3.3 SW 26 37 14 20 1019.2 1018.8 0.0
21/12:30pm 6.9 -0.5 -0.5 59 3.0 SSW 28 35 15 19 1019.2 1018.8 0.0
21/12:00pm 6.6 -0.8 -0.6 60 2.9 SSW 28 37 15 20 1019.2 1018.8 0.0
21/11:30am 7.3 0.1 1.0 64 2.6 SSW 28 35 15 19 1018.7 1018.3 0.0
21/11:00am 5.6 -2.4 0.2 68 2.2 SW 32 41 17 22 1018.6 1018.2 0.0
21/10:30am 5.7 -1.7 -0.4 65 2.4 SSW 28 43 15 23 1018.7 1018.3 0.0
21/10:00am 4.8 -1.6 0.8 75 1.6 SW 24 33 13 18 1018.5 1018.1 0.0
21/09:30am 3.9 -3.3 0.8 80 1.3 SW 28 37 15 20 1018.4 1018.0 0.0
21/09:00am 3.5 -2.0 0.7 82 1.1 SW 19 24 10 13 1018.1 1017.7 0.6
21/08:30am 2.6 -3.1 0.5 86 0.8 SW 20 28 11 15 1017.7 1017.2 0.6
21/08:00am 2.4 -2.6 1.2 92 0.5 SSW 17 24 9 13 1017.5 1017.0 0.6
21/07:51am 2.1 -3.2 2.0 99 0.0 SW 19 24 10 13 1017.5 1017.0 0.6
21/07:48am 1.9 -3.6 1.8 99 0.0 SW 20 24 11 13 1017.3 1016.9 0.6
21/07:30am 1.1 -6.1 1.0 99 0.0 SW 28 35 15 19 1017.0 1016.6 0.6
21/07:28am 1.6 -5.5 1.5 99 0.0 SW 28 35 15 19 1017.0 1016.6 0.6
21/07:18am 1.8 -4.2 0.8 93 0.4 WSW 22 32 12 17 1016.7 1016.3 0.6
21/07:00am 2.0 -3.7 0.8 92 0.5 SW 20 28 11 15 1016.4 1015.9 0.6
21/06:30am 1.8 -5.1 0.2 89 0.6 SW 26 37 14 20 1016.2 1015.7 0.6
21/06:00am 1.9 -3.5 1.2 95 0.3 SW 19 28 10 15 1015.4 1014.9 0.6
21/05:30am 1.7 -4.8 0.2 90 0.6 WSW 24 33 13 18 1014.4 1014.0 0.6
21/05:00am 2.0 -4.4 1.0 93 0.4 WSW 24 30 13 16 1014.3 1013.9 0.6
21/04:30am 2.4 -3.3 0.3 86 0.8 WSW 20 28 11 15 1014.2 1013.7 0.6
21/04:00am 2.7 -2.8 1.8 94 0.4 WSW 20 26 11 14 1014.2 1013.7 0.6
21/03:30am 2.5 -2.9 1.5 93 0.4 WSW 19 22 10 12 1014.1 1013.6 0.6
21/03:00am 3.1 -3.1 1.9 92 0.5 WSW 24 32 13 17 1014.2 1013.7 0.6
21/02:39am 3.3 -2.4 2.7 96 0.3 WSW 22 28 12 15 1014.1 1013.6 0.6
21/02:30am 3.4 -2.3 2.8 96 0.3 WSW 22 33 12 18 1014.1 1013.6 0.6
21/02:18am 3.6 -2.4 3.3 98 0.1 WSW 24 32 13 17 1013.9 1013.4 0.6
21/02:12am 3.8 -2.2 3.5 98 0.1 WSW 24 28 13 15 1014.0 1013.5 0.6
21/02:00am 4.1 -1.0 4.0 99 0.0 WSW 20 30 11 16 1014.1 1013.6 0.6
21/01:48am 4.6 -0.8 4.3 98 0.1 WSW 22 30 12 16 1014.3 1013.9 0.6
21/01:30am 4.7 0.3 4.6 99 0.0 WSW 17 22 9 12 1014.4 1014.0 0.6
21/01:27am 4.8 0.4 4.7 99 0.0 WSW 17 22 9 12 1014.4 1014.0 0.6
21/01:16am 5.0 0.6 4.9 99 0.0 WSW 17 26 9 14 1014.4 1014.0 0.6
21/01:12am 5.1 1.5 5.0 99 0.0 WSW 13 24 7 13 1014.6 1014.1 0.6
21/01:00am 4.8 1.5 4.7 99 0.0 SW 11 13 6 7 1014.6 1014.1 0.6
21/12:55am 4.7 1.8 4.6 99 0.0 WSW 9 13 5 7 1014.7 1014.2 0.6
21/12:40am 4.7 2.2 4.6 99 0.0 WSW 7 11 4 6 1015.0 1014.5 0.6
21/12:30am 4.8 2.3 4.8 100 0.0 WSW 7 11 4 6 1015.0 1014.5 0.6
21/12:16am 4.8 1.9 4.8 100 0.0 W 9 11 5 6 1015.3 1014.8 0.6
21/12:09am 4.5 2.0 4.5 100 0.0 W 7 9 4 5 1015.2 1014.7 0.4
21/12:00am 3.7 1.2 3.7 100 0.0 WNW 6 9 3 5 1015.2 1014.7 0.4
 
Date/Time
EST
Temp
°C
App
Temp
°C
Dew
Point
°C
Rel
Hum
%
Delta-T
°C
Wind Press
QNH
hPa
Press
MSL
hPa
Rain since
9am
mm
Dir  Spd
km/h
Gust
km/h
Spd
kts
Gust
kts
20/11:41pm 2.9 0.2 2.9 100 0.0 NNE 6 6 3 3 1015.2 1014.7 0.4
20/11:30pm 2.6 -0.1 2.5 99 0.0 N 6 9 3 5 1015.3 1014.8 0.4
20/11:00pm 2.7 -0.2 2.6 99 0.0 NE 7 9 4 5 1015.3 1014.8 0.4
20/10:30pm 2.9 -0.3 2.8 99 0.0 NE 9 11 5 6 1015.5 1015.1 0.4
20/10:00pm 3.2 -0.4 3.1 99 0.0 NE 11 13 6 7 1015.7 1015.3 0.4
20/09:30pm 4.1 0.7 4.0 99 0.0 NE 11 11 6 6 1016.1 1015.6 0.4
20/09:00pm 4.6 1.3 4.5 99 0.0 NE 11 15 6 8 1016.6 1016.1 0.4
20/08:30pm 4.6 1.3 4.3 98 0.1 NNE 11 13 6 7 1016.9 1016.5 0.4
20/08:00pm 4.9 1.8 3.6 91 0.6 SSW 9 15 5 8 1016.6 1016.1 0.0
20/07:58pm 4.9 1.4 3.7 92 0.5 SSW 11 20 6 11 1016.5 1016.0 0.0
20/07:40pm 5.1 -0.5 3.4 89 0.7 SW 22 30 12 16 1016.8 1016.4 0.0
20/07:30pm 5.4 -0.6 3.3 86 0.9 SW 24 33 13 18 1016.6 1016.1 0.0
20/07:00pm 6.6 0.0 4.4 86 1.0 SSW 28 43 15 23 1015.9 1015.5 0.0
20/06:44pm 7.0 1.3 5.0 87 0.9 SSW 24 33 13 18 1015.5 1015.1 0.0
20/06:30pm 7.4 1.1 5.7 89 0.8 SW 28 37 15 20 1015.2 1014.7 0.0
20/06:22pm 7.7 0.6 5.5 86 1.0 SW 32 50 17 27 1015.2 1014.7 0.0
20/06:00pm 9.4 3.1 7.5 88 0.9 WSW 30 43 16 23 1014.3 1013.9 0.0
20/05:59pm 9.4 3.1 7.3 87 1.0 WSW 30 43 16 23 1014.3 1013.9 0.0
20/05:30pm 9.9 3.4 6.6 80 1.6 SW 30 43 16 23 1013.7 1013.2 0.0
20/05:00pm 11.2 3.0 6.5 73 2.3 SW 39 48 21 26 1013.0 1012.5 0.0
20/04:30pm 15.1 7.5 2.6 43 5.8 W 32 43 17 23 1012.1 1011.6 0.0
20/04:00pm 15.9 8.1 2.0 39 6.5 NW 32 43 17 23 1011.8 1011.2 0.0
20/03:30pm 18.0 9.3 2.3 35 7.4 NW 37 48 20 26 1012.0 1011.5 0.0
20/03:00pm 17.3 9.0 2.1 36 7.1 WNW 35 54 19 29 1012.3 1011.8 0.0
20/02:30pm 18.4 9.7 1.9 33 7.8 WNW 37 46 20 25 1012.6 1012.1 0.0
20/02:00pm 18.6 9.1 -0.7 27 8.7 NW 39 52 21 28 1013.0 1012.5 0.0
20/01:30pm 18.6 10.1 1.2 31 8.1 NW 35 50 19 27 1013.6 1013.1 0.0
20/01:00pm 18.8 11.2 3.8 37 7.4 NW 33 50 18 27 1014.1 1013.6 0.0
20/12:53pm 18.3 10.4 0.9 31 8.0 NW 32 50 17 27 1014.2 1013.7 0.0
20/12:30pm 18.6 10.6 1.6 32 8.0 NW 33 44 18 24 1014.7 1014.2 0.0
20/12:03pm 18.4 10.8 0.5 30 8.2 WNW 30 54 16 29 1015.4 1014.9 0.0
20/12:00pm 18.1 11.0 1.2 32 7.8 WNW 28 43 15 23 1015.5 1015.1 0.0
20/11:30am 17.8 9.1 -0.5 29 8.2 NW 35 43 19 23 1016.1 1015.6 0.0
20/11:00am 17.8 9.8 1.7 34 7.5 NW 33 44 18 24 1016.6 1016.1 0.0
20/10:30am 17.3 10.0 2.5 37 7.0 NW 30 37 16 20 1017.0 1016.6 0.0
20/10:00am 15.7 10.8 5.0 49 5.3 NNW 20 30 11 16 1017.2 1016.8 0.0
20/09:30am 15.1 9.7 4.5 49 5.1 NW 22 28 12 15 1017.5 1017.0 0.0
20/09:00am 13.6 8.9 5.0 56 4.2 NNW 19 24 10 13 1017.7 1017.2 0.0
20/08:30am 12.0 9.1 6.5 69 2.7 NW 11 19 6 10 1018.0 1017.6 0.0
20/08:00am 9.8 7.8 7.1 83 1.3 NW 7 11 4 6 1018.1 1017.7 0.0
20/07:30am 8.2 6.1 5.8 85 1.1 NNW 6 11 3 6 1018.1 1017.7 0.0
20/07:00am 5.7 3.1 4.3 91 0.6 NNE 7 9 4 5 1018.0 1017.6 0.0
20/06:30am 4.7 2.1 3.4 91 0.6 N 6 7 3 4 1018.0 1017.6 0.0
20/06:00am 3.4 0.8 3.3 99 0.0 N 6 7 3 4 1017.8 1017.4 0.0
20/05:30am 2.5 -1.2 2.2 98 0.1 NNE 11 13 6 7 1017.9 1017.5 0.0
20/05:00am 3.2 -0.5 2.6 96 0.3 NNE 11 13 6 7 1018.0 1017.6 0.0
20/04:30am 3.2 -0.8 2.9 98 0.1 NNE 13 13 7 7 1018.1 1017.7 0.0
20/04:00am 3.2 -0.4 2.9 98 0.1 NNE 11 13 6 7 1018.2 1017.8 0.0
20/03:30am 3.3 -0.3 3.0 98 0.1 NNE 11 13 6 7 1018.3 1017.9 0.0
20/03:00am 3.5 0.7 2.9 96 0.3 N 7 11 4 6 1018.6 1018.2 0.0
20/02:30am 3.8 1.1 2.9 94 0.4 NNE 6 7 3 4 1019.0 1018.6 0.0
20/02:00am 4.8 1.6 3.3 90 0.6 NNE 9 11 5 6 1019.4 1019.0 0.0
20/01:30am 5.1 2.9 3.3 88 0.8 N 4 7 2 4 1019.8 1019.4 0.0
20/01:00am 5.5 2.9 3.3 86 1.0 N 6 7 3 4 1020.1 1019.8 0.0
20/12:30am 6.2 3.4 3.4 82 1.2 NNE 7 9 4 5 1020.4 1020.0 0.0
20/12:00am 6.0 2.8 3.0 81 1.3 N 9 11 5 6 1020.7 1020.3 0.0
 
Date/Time
EST
Temp
°C
App
Temp
°C
Dew
Point
°C
Rel
Hum
%
Delta-T
°C
Wind Press
QNH
hPa
Press
MSL
hPa
Rain since
9am
mm
Dir  Spd
km/h
Gust
km/h
Spd
kts
Gust
kts
19/11:30pm 6.7 3.9 3.3 79 1.5 N 7 9 4 5 1021.0 1020.6 0.0
19/11:00pm 6.8 4.0 3.2 78 1.6 NNE 7 9 4 5 1021.1 1020.7 0.0
19/10:30pm 6.7 3.9 3.3 79 1.5 N 7 9 4 5 1021.2 1020.8 0.0
19/10:00pm 6.8 4.0 2.9 76 1.7 N 7 9 4 5 1021.3 1021.0 0.0
19/09:30pm 7.3 4.4 2.8 73 2.0 N 7 9 4 5 1021.2 1020.8 0.0
19/09:00pm 7.8 4.9 2.7 70 2.2 N 7 9 4 5 1021.3 1021.0 0.0
19/08:30pm 8.0 4.7 2.7 69 2.3 NW 9 11 5 6 1021.4 1021.1 0.0
19/08:00pm 8.2 5.4 3.1 70 2.3 N 7 9 4 5 1021.5 1021.2 0.0
19/07:30pm 8.6 5.5 3.4 70 2.3 N 9 11 5 6 1021.5 1021.2 0.0
19/07:00pm 8.4 4.8 3.1 69 2.4 NW 11 13 6 7 1021.4 1021.1 0.0
19/06:30pm 9.1 5.6 3.3 67 2.6 NW 11 13 6 7 1021.4 1021.1 0.0
19/06:00pm 10.1 6.2 3.2 62 3.1 WNW 13 15 7 8 1021.2 1020.8 0.0
19/05:30pm 12.6 7.9 3.0 52 4.4 WNW 17 24 9 13 1021.2 1020.8 0.0
19/05:00pm 14.0 8.7 3.2 48 5.0 WNW 20 30 11 16 1021.0 1020.6 0.0
19/04:30pm 14.8 9.7 3.0 45 5.5 W 19 22 10 12 1020.8 1020.4 0.0
19/04:00pm 15.2 9.8 2.4 42 5.9 W 20 32 11 17 1020.7 1020.3 0.0
19/03:30pm 15.7 10.2 1.8 39 6.4 WNW 20 30 11 16 1020.9 1020.5 0.0
19/03:00pm 15.9 10.2 2.7 41 6.2 WNW 22 32 12 17 1021.0 1020.6 0.0
19/02:30pm 16.4 10.9 3.8 43 6.1 WNW 22 33 12 18 1021.1 1020.7 0.0
19/02:00pm 16.0 11.6 2.8 41 6.2 WNW 15 20 8 11 1021.4 1021.1 0.0
19/01:30pm 15.5 9.8 3.0 43 5.9 W 22 32 12 17 1022.1 1021.7 0.0
19/01:00pm 14.9 9.2 0.4 37 6.4 WNW 20 28 11 15 1022.5 1022.2 0.0
19/12:30pm 14.9 9.5 1.1 39 6.2 W 19 26 10 14 1023.0 1022.7 0.0
19/12:00pm 14.6 9.6 3.7 48 5.2 W 19 26 10 14 1023.7 1023.4 0.0
19/11:30am 14.3 9.8 4.0 50 4.9 NW 17 24 9 13 1024.0 1023.7 0.0
19/11:00am 13.3 8.3 3.7 52 4.5 NW 19 26 10 14 1024.8 1024.5 0.0
19/10:30am 12.5 7.8 3.2 53 4.3 NW 17 24 9 13 1025.1 1024.8 0.0
19/10:00am 12.5 7.6 4.0 56 4.0 WNW 19 24 10 13 1025.1 1024.8 0.0
19/09:30am 11.9 8.4 5.3 64 3.2 NNW 13 19 7 10 1024.9 1024.6 0.0
19/09:00am 10.2 6.1 4.6 68 2.6 N 15 19 8 10 1025.1 1024.8 5.8
19/08:30am 8.9 5.6 4.5 74 2.0 N 11 17 6 9 1025.0 1024.7 5.8
19/08:00am 6.5 4.0 4.8 89 0.8 N 7 9 4 5 1024.9 1024.6 5.8
19/07:30am 4.8 2.1 3.6 92 0.5 NNE 7 9 4 5 1024.7 1024.3 5.8
19/07:00am 3.5 0.7 2.2 91 0.5 NNE 6 7 3 4 1024.5 1024.2 5.8
19/06:30am 2.0 -0.8 1.9 99 0.0 NNE 6 7 3 4 1024.3 1024.0 5.8

Other formats

Comma delimited format used in spreadsheet applications
http://www.bom.gov.au/fwo/IDN60801/IDN60801.94729.axf

JavaScript Object Notation format (JSON) in row-major order
http://www.bom.gov.au/fwo/IDN60801/IDN60801.94729.json

Data quality

Most of these data are generated automatically and are frequently updated. Quality checks on data are not normally performed. It is possible for incorrect values to appear. Refer to information at About Latest Weather Observations and please check the disclaimer before using these data.